< < Back
Terminal Aerodrome Forecast


Current Version              Previous Versions:   1  2  3  4  5  6  7  8  9  

Terminal Aerodrome Forecast

727
FTUS42 KTAE 251734
TAFVLD
TAF
KVLD 251734Z 2518/2618 VRB05KT P6SM SCT050
     FM252200 27008KT P6SM TS BKN050CB
     FM260100 00000KT P6SM SCT250
     FM261100 00000KT 4SM BR SCT250
     FM261400 02004KT P6SM SKC=



Latest METAR

776
SAUS70 KWBC 251900 RRF
MTRVLD
METAR KVLD 251853Z VRB04KT 10SM CLR 36/21 A3007 RMK AO2 SLP186
T03560211


USA.gov is the U.S. government's official web portal to all federal, state and local government web resources and services.